createdAt,value
2018-12-12T00:02:19.530Z,0.80
2018-12-12T00:04:46.542Z,0.80
2018-12-12T00:07:13.848Z,0.90
2018-12-12T00:09:40.877Z,0.90
2018-12-12T00:12:07.885Z,0.90
2018-12-12T00:14:34.868Z,0.90
2018-12-12T00:17:01.867Z,0.70
2018-12-12T00:19:28.948Z,0.70
2018-12-12T00:21:55.918Z,0.80
2018-12-12T00:24:23.037Z,0.80
2018-12-12T00:26:50.003Z,0.80
2018-12-12T00:29:17.012Z,0.80
2018-12-12T00:31:44.209Z,0.80
2018-12-12T00:34:11.218Z,0.70
2018-12-12T00:36:38.195Z,0.70
2018-12-12T00:39:05.815Z,0.70
2018-12-12T00:41:32.834Z,0.70
2018-12-12T00:43:59.848Z,0.80
2018-12-12T00:46:26.825Z,0.80
2018-12-12T00:48:54.001Z,0.80
2018-12-12T00:51:20.992Z,0.80
2018-12-12T00:53:48.006Z,0.90
2018-12-12T00:56:15.011Z,1.00
2018-12-12T00:58:42.100Z,1.00
2018-12-12T01:01:09.105Z,0.90
2018-12-12T01:03:36.071Z,0.80
2018-12-12T01:06:03.075Z,0.70
2018-12-12T01:08:30.072Z,0.70
2018-12-12T01:11:02.860Z,0.70
2018-12-12T01:13:29.925Z,0.70
2018-12-12T01:15:56.925Z,0.70
2018-12-12T01:18:23.944Z,0.70
2018-12-12T01:20:51.018Z,0.80
2018-12-12T01:23:18.027Z,0.80
2018-12-12T01:25:45.049Z,0.80
2018-12-12T01:28:12.046Z,0.90
2018-12-12T01:30:39.134Z,0.90
2018-12-12T01:33:06.106Z,1.00
2018-12-12T01:35:33.141Z,1.00
2018-12-12T01:38:00.139Z,1.00
2018-12-12T01:40:27.138Z,1.00
2018-12-12T01:42:54.111Z,1.00
2018-12-12T01:45:21.087Z,0.90
2018-12-12T01:47:49.002Z,0.80
2018-12-12T01:50:16.011Z,0.80
2018-12-12T01:52:43.008Z,1.00
2018-12-12T01:55:10.031Z,1.10
2018-12-12T01:57:37.066Z,1.10
2018-12-12T02:00:04.177Z,1.10
2018-12-12T02:02:31.163Z,1.10
2018-12-12T02:04:58.250Z,1.10
2018-12-12T02:07:25.229Z,1.10
2018-12-12T02:09:52.222Z,1.00
2018-12-12T02:12:19.306Z,1.00
2018-12-12T02:14:46.310Z,1.00
2018-12-12T02:17:13.313Z,1.00
2018-12-12T02:19:40.328Z,0.80
2018-12-12T02:22:07.309Z,0.80
2018-12-12T02:24:34.331Z,0.90
2018-12-12T02:27:01.316Z,0.90
2018-12-12T02:29:28.329Z,0.90
2018-12-12T02:31:55.334Z,0.80
2018-12-12T02:34:22.321Z,0.80
2018-12-12T02:36:49.339Z,0.80
2018-12-12T02:39:16.340Z,0.90
2018-12-12T02:41:43.345Z,0.90
2018-12-12T02:44:10.442Z,0.90
2018-12-12T02:46:37.445Z,1.00
2018-12-12T02:49:04.445Z,0.90
2018-12-12T02:51:31.453Z,0.90
2018-12-12T02:53:58.446Z,0.90
2018-12-12T02:56:25.465Z,0.90
2018-12-12T02:58:52.479Z,0.80
2018-12-12T03:01:19.489Z,0.80
2018-12-12T03:03:46.494Z,0.90
2018-12-12T03:06:13.491Z,0.80
2018-12-12T03:08:40.492Z,0.80
2018-12-12T03:11:07.556Z,0.90
2018-12-12T03:13:34.561Z,0.90
2018-12-12T03:16:01.602Z,1.00
2018-12-12T03:18:28.615Z,0.90
2018-12-12T03:20:55.629Z,0.90
2018-12-12T03:23:22.633Z,1.10
2018-12-12T03:25:49.630Z,1.10
2018-12-12T03:28:16.629Z,1.20
2018-12-12T03:30:43.604Z,1.20
2018-12-12T03:33:10.689Z,1.20
2018-12-12T03:35:37.751Z,1.30
2018-12-12T03:38:04.736Z,1.30
2018-12-12T03:40:32.273Z,1.40
2018-12-12T03:42:59.286Z,1.40
2018-12-12T03:45:26.303Z,1.40
2018-12-12T03:47:53.302Z,1.30
2018-12-12T03:50:20.303Z,1.30
2018-12-12T03:52:47.307Z,1.40
2018-12-12T03:55:14.390Z,1.40
2018-12-12T03:57:41.402Z,1.40
2018-12-12T04:00:08.725Z,1.50
2018-12-12T04:02:35.742Z,1.50
2018-12-12T04:05:02.725Z,1.50
2018-12-12T04:07:29.726Z,1.50
2018-12-12T04:09:56.730Z,1.50
2018-12-12T04:12:23.745Z,1.50
2018-12-12T04:14:50.726Z,1.60
2018-12-12T04:17:17.724Z,1.50
2018-12-12T04:19:44.729Z,1.60
2018-12-12T04:22:11.723Z,1.50
2018-12-12T04:24:38.925Z,1.60
2018-12-12T04:27:05.943Z,1.70
2018-12-12T04:29:32.927Z,1.70
2018-12-12T04:31:59.920Z,1.60
2018-12-12T04:34:26.928Z,1.50
2018-12-12T04:36:54.006Z,1.40
2018-12-12T04:39:20.996Z,1.40
2018-12-12T04:41:48.001Z,1.40
2018-12-12T04:44:14.999Z,1.50
2018-12-12T04:46:41.998Z,1.50
2018-12-12T04:49:08.984Z,1.50
2018-12-12T04:51:35.966Z,1.50
2018-12-12T04:54:02.954Z,1.40
2018-12-12T04:56:29.971Z,1.40
2018-12-12T04:58:57.196Z,1.50
2018-12-12T05:01:24.191Z,1.40
2018-12-12T05:03:51.206Z,1.40
2018-12-12T05:06:18.199Z,1.50
2018-12-12T05:08:45.225Z,1.50
2018-12-12T05:11:12.212Z,1.50
2018-12-12T05:13:39.213Z,1.40
2018-12-12T05:16:06.242Z,1.40
2018-12-12T05:18:33.223Z,1.40
2018-12-12T05:21:00.211Z,1.40
2018-12-12T05:23:27.196Z,1.30
2018-12-12T05:25:54.178Z,1.30
2018-12-12T05:28:21.193Z,1.30
2018-12-12T05:30:48.182Z,1.20
2018-12-12T05:33:15.195Z,1.20
2018-12-12T05:35:42.206Z,1.10
2018-12-12T05:38:09.297Z,1.10
2018-12-12T05:40:36.471Z,1.10
2018-12-12T05:43:03.493Z,1.10
2018-12-12T05:45:30.483Z,1.10
2018-12-12T05:47:57.491Z,1.10
2018-12-12T05:50:24.463Z,1.20
2018-12-12T05:52:51.466Z,2.00
2018-12-12T05:55:18.466Z,2.10
2018-12-12T05:57:45.469Z,2.40
2018-12-12T06:02:47.278Z,2.20
2018-12-12T06:05:14.274Z,2.10
2018-12-12T06:07:41.287Z,1.90
2018-12-12T06:10:08.321Z,1.70
2018-12-12T06:12:35.308Z,1.50
2018-12-12T06:15:02.304Z,1.40
2018-12-12T06:17:29.325Z,1.40
2018-12-12T06:19:56.621Z,1.30
2018-12-12T06:22:23.848Z,1.30
2018-12-12T06:24:50.829Z,1.20
2018-12-12T06:27:17.825Z,1.20
2018-12-12T06:29:44.941Z,1.10
2018-12-12T06:32:12.032Z,1.00
2018-12-12T06:34:39.116Z,1.00
2018-12-12T06:37:06.132Z,0.90
2018-12-12T06:39:33.116Z,1.00
2018-12-12T06:42:00.112Z,1.00
2018-12-12T06:44:27.131Z,0.90
2018-12-12T06:46:54.115Z,1.00
2018-12-12T06:49:21.123Z,1.00
2018-12-12T06:51:48.114Z,1.00
2018-12-12T06:54:15.112Z,0.90
2018-12-12T06:56:42.120Z,1.00
2018-12-12T06:59:09.119Z,1.10
2018-12-12T07:01:36.529Z,1.00
2018-12-12T07:04:03.528Z,1.00
2018-12-12T07:06:41.609Z,1.10
2018-12-12T07:09:08.597Z,1.10
2018-12-12T07:11:35.588Z,1.20
2018-12-12T07:14:02.581Z,1.10
2018-12-12T07:16:29.586Z,1.10
2018-12-12T07:18:56.576Z,1.10
2018-12-12T07:21:23.578Z,1.10
2018-12-12T07:23:50.558Z,1.10
2018-12-12T07:26:17.627Z,1.20
2018-12-12T07:28:44.684Z,1.30
2018-12-12T07:31:11.783Z,1.30
2018-12-12T07:33:38.756Z,1.30
2018-12-12T07:36:05.763Z,1.30
2018-12-12T07:38:32.845Z,1.40
2018-12-12T07:40:59.818Z,1.50
2018-12-12T07:43:26.815Z,1.60
2018-12-12T07:45:53.790Z,1.60
2018-12-12T07:48:21.573Z,1.70
2018-12-12T07:50:48.581Z,1.60
2018-12-12T07:53:15.580Z,1.70
2018-12-12T07:55:42.580Z,1.60
2018-12-12T07:58:09.568Z,1.60
2018-12-12T08:00:36.559Z,1.60
2018-12-12T08:03:06.370Z,1.60
2018-12-12T08:05:32.592Z,1.60
2018-12-12T08:07:59.575Z,1.70
2018-12-12T08:10:26.568Z,1.90
2018-12-12T08:12:53.570Z,2.00
2018-12-12T08:15:20.565Z,1.90
2018-12-12T08:17:47.577Z,1.90
2018-12-12T08:20:14.582Z,1.80
2018-12-12T08:22:41.560Z,1.80
2018-12-12T08:25:08.565Z,1.80
2018-12-12T08:27:35.551Z,1.80
2018-12-12T08:30:02.569Z,1.80
2018-12-12T08:32:29.584Z,1.80
2018-12-12T08:34:56.566Z,1.90
2018-12-12T08:37:23.553Z,1.90
2018-12-12T08:39:50.557Z,1.80
2018-12-12T08:42:17.554Z,1.80
2018-12-12T08:44:44.931Z,2.00
2018-12-12T08:47:11.965Z,2.10
2018-12-12T08:49:38.964Z,2.10
2018-12-12T08:52:06.047Z,2.10
2018-12-12T08:54:33.028Z,2.10
2018-12-12T08:57:00.247Z,2.00
2018-12-12T08:59:27.244Z,2.00
2018-12-12T09:01:54.239Z,1.80
2018-12-12T09:04:21.237Z,1.80
2018-12-12T09:06:48.227Z,1.80
2018-12-12T09:09:15.224Z,1.90
2018-12-12T09:11:42.228Z,1.90
2018-12-12T09:14:09.212Z,1.90
2018-12-12T09:16:36.192Z,2.10
2018-12-12T09:19:03.202Z,2.10
2018-12-12T09:21:30.255Z,2.20
2018-12-12T09:23:57.254Z,2.30
2018-12-12T09:26:24.256Z,2.30
2018-12-12T09:28:51.243Z,2.30
2018-12-12T09:31:18.247Z,2.40
2018-12-12T09:33:45.226Z,2.50
2018-12-12T09:36:12.241Z,2.50
2018-12-12T09:38:39.247Z,2.50
2018-12-12T09:41:07.059Z,2.40
2018-12-12T09:43:34.078Z,2.50
2018-12-12T09:46:01.057Z,2.50
2018-12-12T09:48:28.062Z,2.60
2018-12-12T09:50:55.098Z,2.70
2018-12-12T09:53:22.104Z,2.70
2018-12-12T09:55:49.091Z,2.60
2018-12-12T09:58:16.075Z,2.60
2018-12-12T10:00:43.071Z,2.70
2018-12-12T10:03:10.069Z,2.90
2018-12-12T10:05:37.201Z,2.90
2018-12-12T10:08:04.219Z,2.90
2018-12-12T10:10:31.221Z,2.80
2018-12-12T10:12:58.204Z,2.80
2018-12-12T10:15:25.224Z,2.80
2018-12-12T10:17:52.211Z,2.80
2018-12-12T10:20:19.204Z,2.80
2018-12-12T10:22:46.207Z,2.90
2018-12-12T10:25:13.238Z,3.10
2018-12-12T10:27:40.222Z,3.40
2018-12-12T10:30:07.250Z,3.80
2018-12-12T10:32:34.458Z,4.10
2018-12-12T10:35:01.468Z,4.20
2018-12-12T10:37:28.465Z,4.20
2018-12-12T10:39:55.474Z,4.30
2018-12-12T10:42:22.449Z,4.00
2018-12-12T10:44:49.444Z,3.90
2018-12-12T10:47:16.415Z,4.00
2018-12-12T10:49:43.414Z,3.80
2018-12-12T10:52:10.403Z,3.90
2018-12-12T10:54:37.497Z,3.70
2018-12-12T10:57:04.502Z,3.50
2018-12-12T10:59:32.317Z,3.40
2018-12-12T11:02:05.138Z,3.40
2018-12-12T11:04:32.132Z,3.40
2018-12-12T11:06:59.116Z,3.40
2018-12-12T11:09:26.114Z,3.40
2018-12-12T11:11:53.091Z,3.50
2018-12-12T11:14:20.108Z,3.60
2018-12-12T11:16:47.100Z,3.70
2018-12-12T11:19:14.081Z,3.70
2018-12-12T11:21:41.063Z,3.90
2018-12-12T11:24:08.062Z,3.80
2018-12-12T11:26:35.060Z,3.60
2018-12-12T11:29:02.064Z,3.70
2018-12-12T11:31:29.154Z,3.80
2018-12-12T11:33:56.132Z,4.00
2018-12-12T11:36:23.132Z,4.00
2018-12-12T11:38:50.118Z,4.00
2018-12-12T11:41:17.193Z,4.00
2018-12-12T11:43:44.213Z,4.20
2018-12-12T11:46:11.209Z,4.20
2018-12-12T11:48:38.179Z,4.10
2018-12-12T11:51:05.218Z,4.00
2018-12-12T11:53:32.238Z,4.10
2018-12-12T11:55:59.214Z,4.00
2018-12-12T11:58:26.222Z,4.00
2018-12-12T12:00:53.219Z,4.10
2018-12-12T12:03:20.254Z,4.00
2018-12-12T12:05:47.299Z,3.80
2018-12-12T12:08:14.285Z,3.60
2018-12-12T12:10:41.263Z,3.50
2018-12-12T12:13:08.244Z,3.50
2018-12-12T12:15:35.267Z,3.50
2018-12-12T12:18:02.262Z,3.30
2018-12-12T12:20:29.256Z,3.30
2018-12-12T12:22:56.235Z,3.20
2018-12-12T12:25:23.229Z,3.20
2018-12-12T12:27:50.201Z,3.20
2018-12-12T12:30:17.183Z,3.20
2018-12-12T12:32:44.698Z,3.20
2018-12-12T12:35:11.716Z,3.10
2018-12-12T12:37:38.718Z,3.10
2018-12-12T12:40:06.321Z,3.20
2018-12-12T12:42:33.300Z,3.10
2018-12-12T12:45:00.326Z,3.00
2018-12-12T12:47:27.302Z,3.00
2018-12-12T12:49:54.313Z,3.00
2018-12-12T12:52:21.314Z,3.00
2018-12-12T12:54:48.314Z,3.20
2018-12-12T12:57:15.285Z,3.60
2018-12-12T12:59:42.281Z,3.60
2018-12-12T13:02:09.266Z,3.80
2018-12-12T13:04:36.356Z,3.90
2018-12-12T13:07:03.360Z,4.10
2018-12-12T13:09:30.350Z,4.30
2018-12-12T13:11:57.436Z,4.40
2018-12-12T13:14:24.629Z,5.10
2018-12-12T13:16:51.636Z,5.30
2018-12-12T13:19:18.689Z,5.20
2018-12-12T13:21:45.703Z,5.10
2018-12-12T13:24:12.713Z,4.60
2018-12-12T13:26:39.716Z,4.30
2018-12-12T13:29:06.691Z,3.80
2018-12-12T13:31:33.696Z,3.60
2018-12-12T13:34:00.752Z,3.50
2018-12-12T13:36:27.774Z,3.50
2018-12-12T13:38:54.774Z,3.60
2018-12-12T13:41:21.763Z,3.50
2018-12-12T13:43:48.765Z,3.40
2018-12-12T13:46:15.767Z,3.40
2018-12-12T13:48:42.759Z,3.40
2018-12-12T13:51:09.760Z,3.40
2018-12-12T13:53:36.760Z,3.60
2018-12-12T13:56:03.755Z,3.70
2018-12-12T13:58:30.774Z,3.70
2018-12-12T14:00:57.765Z,3.70
2018-12-12T14:03:24.749Z,3.80
2018-12-12T14:05:51.747Z,3.70
2018-12-12T14:08:18.779Z,3.70
2018-12-12T14:10:45.761Z,3.70
2018-12-12T14:13:12.783Z,3.70
2018-12-12T14:15:39.798Z,3.80
2018-12-12T14:18:06.782Z,3.80
2018-12-12T14:20:33.784Z,3.80
2018-12-12T14:23:00.786Z,3.70
2018-12-12T14:25:27.782Z,3.70
2018-12-12T14:27:54.802Z,3.60
2018-12-12T14:30:21.782Z,3.60
2018-12-12T14:32:48.767Z,3.50
2018-12-12T14:35:15.749Z,3.40
2018-12-12T14:37:42.810Z,3.30
2018-12-12T14:40:10.664Z,3.30
2018-12-12T14:42:37.665Z,3.20
2018-12-12T14:45:04.761Z,3.00
2018-12-12T14:47:31.767Z,3.00
2018-12-12T14:49:58.754Z,2.90
2018-12-12T14:52:25.742Z,2.90
2018-12-12T14:54:52.738Z,2.90
2018-12-12T14:57:19.720Z,2.90
2018-12-12T14:59:46.695Z,2.90
2018-12-12T15:02:13.723Z,2.80
2018-12-12T15:04:40.704Z,2.80
2018-12-12T15:07:07.790Z,2.80
2018-12-12T15:09:34.773Z,2.80
2018-12-12T15:12:01.778Z,2.70
2018-12-12T15:14:28.751Z,2.80
2018-12-12T15:16:55.727Z,2.70
2018-12-12T15:19:22.804Z,2.70
2018-12-12T15:21:49.800Z,2.70
2018-12-12T15:24:16.789Z,2.60
2018-12-12T15:26:43.813Z,2.60
2018-12-12T15:29:10.878Z,2.70
2018-12-12T15:31:37.904Z,2.70
2018-12-12T15:34:04.901Z,2.60
2018-12-12T15:36:32.020Z,2.60
2018-12-12T15:38:59.006Z,2.60
2018-12-12T15:41:26.035Z,2.50
2018-12-12T15:43:53.060Z,2.50
2018-12-12T15:46:20.031Z,2.50
2018-12-12T15:48:47.028Z,2.50
2018-12-12T15:51:14.046Z,2.40
2018-12-12T15:53:41.061Z,2.40
2018-12-12T15:56:08.064Z,2.50
2018-12-12T15:58:35.050Z,2.50
2018-12-12T16:01:02.059Z,2.50
2018-12-12T16:03:29.561Z,2.50
2018-12-12T16:05:56.560Z,2.50
2018-12-12T16:08:23.558Z,2.50
2018-12-12T16:10:50.576Z,2.50
2018-12-12T16:13:18.276Z,2.50
2018-12-12T16:15:45.312Z,2.50
2018-12-12T16:18:12.585Z,2.50
2018-12-12T16:20:39.575Z,2.40
2018-12-12T16:23:06.577Z,2.40
2018-12-12T16:25:33.584Z,2.40
2018-12-12T16:28:00.584Z,2.40
2018-12-12T16:30:27.579Z,2.30
2018-12-12T16:32:54.589Z,2.40
2018-12-12T16:35:21.585Z,2.40
2018-12-12T16:37:48.613Z,2.40
2018-12-12T16:40:15.595Z,2.40
2018-12-12T16:42:42.623Z,2.50
2018-12-12T16:45:09.617Z,2.40
2018-12-12T16:47:36.623Z,2.40
2018-12-12T16:50:03.828Z,2.40
2018-12-12T16:52:30.795Z,2.40
2018-12-12T16:54:57.792Z,2.40
2018-12-12T16:57:24.790Z,2.30
2018-12-12T16:59:51.795Z,2.40
2018-12-12T17:02:18.811Z,2.30
2018-12-12T17:04:45.815Z,2.30
2018-12-12T17:07:12.869Z,2.30
2018-12-12T17:09:40.182Z,2.30
2018-12-12T17:12:07.177Z,2.40
2018-12-12T17:14:34.166Z,2.30
2018-12-12T17:17:01.189Z,2.30
2018-12-12T17:19:28.182Z,2.40
2018-12-12T17:21:55.187Z,2.40
2018-12-12T17:24:22.190Z,2.40
2018-12-12T17:26:49.210Z,2.40
2018-12-12T17:29:16.181Z,2.40
2018-12-12T17:31:43.198Z,2.40
2018-12-12T17:34:10.195Z,2.40
2018-12-12T17:36:37.191Z,2.40
2018-12-12T17:39:05.681Z,2.40
2018-12-12T17:41:32.737Z,2.40
2018-12-12T17:43:59.746Z,2.40
2018-12-12T17:46:26.723Z,2.40
2018-12-12T17:48:53.726Z,2.40
2018-12-12T17:51:20.744Z,2.40
2018-12-12T17:53:47.747Z,2.40
2018-12-12T17:56:14.727Z,2.40
2018-12-12T17:58:41.727Z,2.40
2018-12-12T18:01:08.745Z,2.50
2018-12-12T18:03:35.737Z,2.50
2018-12-12T18:06:02.751Z,2.50
2018-12-12T18:08:29.761Z,2.40
2018-12-12T18:10:56.836Z,2.40
2018-12-12T18:13:23.847Z,2.30
2018-12-12T18:15:50.851Z,2.20
2018-12-12T18:18:17.837Z,2.20
2018-12-12T18:20:44.823Z,2.20
2018-12-12T18:23:11.853Z,2.20
2018-12-12T18:25:38.829Z,2.20
2018-12-12T18:28:05.830Z,2.20
2018-12-12T18:30:32.826Z,2.10
2018-12-12T18:32:59.824Z,2.20
2018-12-12T18:35:26.826Z,2.10
2018-12-12T18:37:53.830Z,2.10
2018-12-12T18:40:20.855Z,2.10
2018-12-12T18:42:47.851Z,2.10
2018-12-12T18:45:14.839Z,2.00
2018-12-12T18:47:41.857Z,2.00
2018-12-12T18:50:08.859Z,2.00
2018-12-12T18:52:35.856Z,2.00
2018-12-12T18:55:02.879Z,2.10
2018-12-12T18:57:29.926Z,2.10
2018-12-12T18:59:56.899Z,2.10
2018-12-12T19:02:23.971Z,2.10
2018-12-12T19:04:50.961Z,2.10
2018-12-12T19:07:17.969Z,2.00
2018-12-12T19:09:44.974Z,1.90
2018-12-12T19:12:11.977Z,1.90
2018-12-12T19:14:40.882Z,1.90
2018-12-12T19:17:07.855Z,1.90
2018-12-12T19:19:34.836Z,2.00
2018-12-12T19:22:01.874Z,1.90
2018-12-12T19:24:28.943Z,2.00
2018-12-12T19:26:56.344Z,2.00
2018-12-12T19:29:23.367Z,2.00
2018-12-12T19:31:50.364Z,1.90
2018-12-12T19:34:17.377Z,1.90
2018-12-12T19:36:44.363Z,2.00
2018-12-12T19:39:11.373Z,2.00
2018-12-12T19:41:38.347Z,2.00
2018-12-12T19:44:05.557Z,1.90
2018-12-12T19:46:32.548Z,1.90
2018-12-12T19:48:59.555Z,1.80
2018-12-12T19:51:26.552Z,1.80
2018-12-12T19:53:53.568Z,1.70
2018-12-12T19:56:20.573Z,1.80
2018-12-12T19:58:47.570Z,1.70
2018-12-12T20:01:14.572Z,1.70
2018-12-12T20:03:41.576Z,1.70
2018-12-12T20:06:08.577Z,1.60
2018-12-12T20:08:35.590Z,1.60
2018-12-12T20:11:02.614Z,1.60
2018-12-12T20:13:29.694Z,1.60
2018-12-12T20:15:56.693Z,1.60
2018-12-12T20:18:23.694Z,1.50
2018-12-12T20:20:50.674Z,1.40
2018-12-12T20:23:17.706Z,1.30
2018-12-12T20:25:44.721Z,1.30
2018-12-12T20:28:11.720Z,1.20
2018-12-12T20:30:38.775Z,1.20
2018-12-12T20:33:05.775Z,1.10
2018-12-12T20:35:32.791Z,1.00
2018-12-12T20:37:59.791Z,1.10
2018-12-12T20:40:26.821Z,1.20
2018-12-12T20:42:53.801Z,1.20
2018-12-12T20:45:20.799Z,1.30
2018-12-12T20:47:47.817Z,1.40
2018-12-12T20:50:14.816Z,1.50
2018-12-12T20:52:41.788Z,1.50
2018-12-12T20:55:08.862Z,1.60
2018-12-12T20:57:35.837Z,1.70
2018-12-12T21:00:03.323Z,1.70
2018-12-12T21:02:30.650Z,1.70
2018-12-12T21:04:57.902Z,1.70
2018-12-12T21:07:24.904Z,1.70
2018-12-12T21:09:51.923Z,1.70
2018-12-12T21:12:18.927Z,1.70
2018-12-12T21:14:45.945Z,1.70
2018-12-12T21:17:12.935Z,1.60
2018-12-12T21:19:39.937Z,1.50
2018-12-12T21:22:06.935Z,1.40
2018-12-12T21:24:33.953Z,1.40
2018-12-12T21:27:00.954Z,1.30
2018-12-12T21:29:27.963Z,1.30
2018-12-12T21:31:54.944Z,1.30
2018-12-12T21:34:21.949Z,1.20
2018-12-12T21:36:48.916Z,1.20
2018-12-12T21:39:15.912Z,1.20
2018-12-12T21:41:42.887Z,1.20
2018-12-12T21:44:09.873Z,1.10
2018-12-12T21:46:36.871Z,1.10
2018-12-12T21:49:03.888Z,1.00
2018-12-12T21:51:30.882Z,1.00
2018-12-12T21:53:57.874Z,1.00
2018-12-12T21:56:24.874Z,0.90
2018-12-12T21:58:51.872Z,0.90
2018-12-12T22:01:18.879Z,0.90
2018-12-12T22:03:45.911Z,0.90
2018-12-12T22:06:12.927Z,0.80
2018-12-12T22:08:39.917Z,0.80
2018-12-12T22:11:06.891Z,0.80
2018-12-12T22:13:33.875Z,0.70
2018-12-12T22:16:00.965Z,0.70
2018-12-12T22:18:27.964Z,0.60
2018-12-12T22:20:54.948Z,0.60
2018-12-12T22:23:21.937Z,0.50
2018-12-12T22:25:49.007Z,0.40
2018-12-12T22:28:16.008Z,0.30
2018-12-12T22:30:43.010Z,0.30
2018-12-12T22:33:09.998Z,0.30
2018-12-12T22:35:36.994Z,0.20
2018-12-12T22:38:03.988Z,0.10
2018-12-12T22:40:30.979Z,0.10
2018-12-12T22:42:57.976Z,0.10
2018-12-12T22:45:24.986Z,0.00
2018-12-12T22:47:52.508Z,-0.10
2018-12-12T22:50:20.055Z,-0.10
2018-12-12T22:52:47.026Z,-0.10
2018-12-12T22:55:14.054Z,-0.10
2018-12-12T22:57:41.071Z,-0.10
2018-12-12T23:00:11.031Z,-0.20
2018-12-12T23:02:39.166Z,-0.20
2018-12-12T23:05:06.202Z,-0.30
2018-12-12T23:07:33.289Z,-0.20
2018-12-12T23:10:00.290Z,-0.20
2018-12-12T23:12:27.292Z,-0.30
2018-12-12T23:14:54.293Z,-0.30
2018-12-12T23:17:21.319Z,-0.30
2018-12-12T23:19:48.318Z,-0.30
2018-12-12T23:22:15.338Z,-0.30
2018-12-12T23:24:42.361Z,-0.40
2018-12-12T23:27:09.342Z,-0.40
2018-12-12T23:29:36.352Z,-0.40
2018-12-12T23:32:03.395Z,-0.40
2018-12-12T23:34:30.385Z,-0.40
2018-12-12T23:36:57.433Z,-0.50
2018-12-12T23:39:24.442Z,-0.50
2018-12-12T23:41:51.443Z,-0.50
2018-12-12T23:44:18.442Z,-0.50
2018-12-12T23:46:45.444Z,-0.50
2018-12-12T23:49:12.468Z,-0.50
2018-12-12T23:51:39.466Z,-0.60
2018-12-12T23:54:06.442Z,-0.60
2018-12-12T23:56:33.451Z,-0.60
2018-12-12T23:59:00.466Z,-0.70
